Time;durP1;ratioP1;P1;durP2;ratioP2;P2;SDS_P1;SDS_P2;PMS_P1;PMS_P2;Temp;Humidity;BMP_temperature;BMP_pressure;BME280_temperature;BME280_humidity;BME280_pressure;Samples;Min_cycle;Max_cycle;Signal;HPM_P1;HPM_P2
2022/07/31 00:00:05;;;;;;;;;;;;;;;22.90;55.87;101431.91;1024170;29;654;-84
2022/07/31 00:00:55;;;;;;;;;;;;;;;22.90;55.54;101440.06;1022199;28;735;-84
2022/07/31 00:01:45;;;;;;;;;;;;;;;22.91;55.67;101436.31;1022728;28;614;-84
2022/07/31 00:02:36;;;;;;;;;;;;;;;22.90;55.92;101431.91;1021544;29;681;-83
2022/07/31 00:03:26;;;;;;;;;;;;;;;22.90;55.85;101438.19;1022745;28;685;-84
2022/07/31 00:04:17;;;;;;;;;;;;;;;22.88;55.90;101434.78;1021556;29;673;-82
2022/07/31 00:05:07;;;;;;;;;;;;;;;22.88;55.52;101432.06;1022389;28;615;-84
2022/07/31 00:05:58;;;;;;;;;;;;;;;22.88;55.71;101437.50;1022840;28;634;-85
2022/07/31 00:06:48;;;;;;;;;;;;;;;22.88;55.95;101440.22;1026360;28;1974;-86
2022/07/31 00:07:38;;;;;;;;;;;;;;;22.86;55.69;101436.81;1025201;28;623;-86
2022/07/31 00:08:29;;;;;;;;;;;;;;;22.87;55.56;101440.38;1021785;28;674;-85
2022/07/31 00:09:19;;;;;;;;;;;;;;;22.87;55.67;101438.50;1022559;28;739;-84
2022/07/31 00:10:10;;;;;;;;;;;;;;;22.85;55.59;101440.53;1022504;28;844;-85
2022/07/31 00:11:00;;;;;;;;;;;;;;;22.87;55.77;101440.38;1022522;28;726;-84
2022/07/31 00:11:51;;;;;;;;;;;;;;;22.87;55.67;101443.09;1022202;28;694;-87
2022/07/31 00:12:41;;;;;;;;;;;;;;;22.87;56.01;101440.38;1025602;28;570;-84
2022/07/31 00:13:31;;;;;;;;;;;;;;;22.88;55.95;101440.22;1025780;28;641;-84
2022/07/31 00:14:22;;;;;;;;;;;;;;;22.87;55.94;101445.81;1022214;28;674;-83
2022/07/31 00:15:12;;;;;;;;;;;;;;;22.87;55.68;101441.22;1022567;28;631;-85
2022/07/31 00:16:03;;;;;;;;;;;;;;;22.87;55.64;101438.50;1022617;28;674;-85
2022/07/31 00:16:53;;;;;;;;;;;;;;;22.87;55.59;101443.09;1025577;28;1611;-85
2022/07/31 00:17:44;;;;;;;;;;;;;;;22.86;55.63;101439.53;1025102;29;745;-85
2022/07/31 00:18:34;;;;;;;;;;;;;;;22.86;55.60;101439.53;1028343;28;681;-85
2022/07/31 00:19:25;;;;;;;;;;;;;;;22.86;55.85;101439.53;1025043;28;638;-84
2022/07/31 00:20:15;;;;;;;;;;;;;;;22.88;55.51;101448.38;1024632;29;655;-85
2022/07/31 00:21:06;;;;;;;;;;;;;;;22.86;55.95;101447.69;1025440;28;661;-85
2022/07/31 00:21:57;;;;;;;;;;;;;;;22.86;55.78;101447.69;1024308;29;675;-84
2022/07/31 00:22:48;;;;;;;;;;;;;;;22.85;55.65;101451.41;1025738;28;682;-82
2022/07/31 00:23:38;;;;;;;;;;;;;;;22.83;55.94;101442.56;1024447;29;683;-83
2022/07/31 00:24:28;;;;;;;;;;;;;;;22.83;56.06;101442.56;1024813;29;647;-86
2022/07/31 00:25:19;;;;;;;;;;;;;;;22.82;55.84;101440.88;1024384;29;752;-86
2022/07/31 00:26:09;;;;;;;;;;;;;;;22.80;55.84;101435.59;1024029;28;770;-84
2022/07/31 00:27:00;;;;;;;;;;;;;;;22.81;56.25;101434.56;1024309;29;1926;-84
2022/07/31 00:27:50;;;;;;;;;;;;;;;22.84;55.95;101436.13;1024927;29;733;-85
2022/07/31 00:28:41;;;;;;;;;;;;;;;22.83;56.19;101437.13;1024997;29;690;-86
2022/07/31 00:29:31;;;;;;;;;;;;;;;22.82;56.15;101430.84;1024949;29;642;-85
2022/07/31 00:30:22;;;;;;;;;;;;;;;22.84;56.22;101433.41;1024311;29;667;-86
2022/07/31 00:31:12;;;;;;;;;;;;;;;22.84;56.25;101436.13;1024383;29;675;-86
2022/07/31 00:32:02;;;;;;;;;;;;;;;22.84;56.01;101428.81;1024286;29;645;-87
2022/07/31 00:32:53;;;;;;;;;;;;;;;22.83;55.73;101431.69;1024505;29;643;-88
2022/07/31 00:33:44;;;;;;;;;;;;;;;22.81;55.97;101422.84;1025121;29;643;-88
2022/07/31 00:34:34;;;;;;;;;;;;;;;22.81;56.23;101423.72;1024367;29;686;-86
2022/07/31 00:35:25;;;;;;;;;;;;;;;22.82;56.10;101421.84;1024814;29;630;-86
2022/07/31 00:36:15;;;;;;;;;;;;;;;22.82;55.76;101425.41;1028535;28;662;-86
2022/07/31 00:37:05;;;;;;;;;;;;;;;22.84;55.74;101422.53;1028744;28;1696;-86
2022/07/31 00:37:56;;;;;;;;;;;;;;;22.82;56.08;101413.69;1024761;29;712;-85
2022/07/31 00:38:46;;;;;;;;;;;;;;;22.83;55.58;101418.97;1025271;28;697;-85
2022/07/31 00:39:37;;;;;;;;;;;;;;;22.81;56.12;101412.84;1024895;29;720;-84
2022/07/31 00:40:27;;;;;;;;;;;;;;;22.83;55.71;101404.53;1024697;29;643;-84
2022/07/31 00:41:18;;;;;;;;;;;;;;;22.82;55.96;101402.81;1025181;28;725;-85
2022/07/31 00:42:08;;;;;;;;;;;;;;;22.82;55.93;101403.66;1024815;29;803;-85
2022/07/31 00:42:59;;;;;;;;;;;;;;;22.82;55.69;101400.09;1024936;29;722;-85
2022/07/31 00:43:49;;;;;;;;;;;;;;;22.83;55.76;101404.53;1024828;29;639;-85
2022/07/31 00:44:40;;;;;;;;;;;;;;;22.81;55.76;101391.09;1024805;29;627;-85
2022/07/31 00:45:30;;;;;;;;;;;;;;;22.81;56.22;101390.25;1024882;29;617;-85
2022/07/31 00:46:20;;;;;;;;;;;;;;;22.80;56.34;101393.97;1024707;29;694;-85
2022/07/31 00:47:11;;;;;;;;;;;;;;;22.81;55.84;101390.25;1028327;28;1894;-84
2022/07/31 00:48:02;;;;;;;;;;;;;;;22.80;55.78;101393.97;1028431;28;686;-84
2022/07/31 00:48:53;;;;;;;;;;;;;;;22.80;56.01;101394.81;1025454;28;693;-84
2022/07/31 00:49:43;;;;;;;;;;;;;;;22.80;55.70;101388.53;1024910;29;681;-85
2022/07/31 00:50:33;;;;;;;;;;;;;;;22.82;56.25;101397.38;1024884;29;627;-84
2022/07/31 00:51:24;;;;;;;;;;;;;;;22.82;55.66;101395.50;1025118;29;784;-84
2022/07/31 00:52:14;;;;;;;;;;;;;;;22.81;55.75;101390.25;1024893;29;611;-86
2022/07/31 00:53:05;;;;;;;;;;;;;;;22.81;56.28;101396.53;1024965;29;638;-85
2022/07/31 00:53:55;;;;;;;;;;;;;;;22.81;55.82;101395.69;1024919;29;685;-85
2022/07/31 00:54:46;;;;;;;;;;;;;;;22.80;55.91;101393.97;1025157;29;634;-85
2022/07/31 00:55:37;;;;;;;;;;;;;;;22.79;55.89;101395.84;1024422;29;701;-84
2022/07/31 00:56:28;;;;;;;;;;;;;;;22.78;55.83;101390.56;1024729;28;678;-84
2022/07/31 00:57:18;;;;;;;;;;;;;;;22.79;55.97;101392.28;1025072;29;658;-83
2022/07/31 00:58:09;;;;;;;;;;;;;;;22.77;55.85;101392.44;1024691;28;681;-85
2022/07/31 00:58:59;;;;;;;;;;;;;;;22.76;56.33;101398.00;1024584;29;1202;-85
2022/07/31 00:59:50;;;;;;;;;;;;;;;22.77;56.20;101397.03;1026206;28;677;-84
2022/07/31 01:00:40;;;;;;;;;;;;;;;22.78;55.94;101390.56;1023745;29;635;-84
2022/07/31 01:01:31;;;;;;;;;;;;;;;22.77;55.92;101392.44;1020277;29;596;-84
2022/07/31 01:02:21;;;;;;;;;;;;;;;22.76;56.25;101385.25;1022409;28;705;-84
2022/07/31 01:03:12;;;;;;;;;;;;;;;22.77;56.00;101389.72;1021274;29;667;-85
2022/07/31 01:04:02;;;;;;;;;;;;;;;22.79;55.92;101386.84;1021312;29;643;-85
2022/07/31 01:04:52;;;;;;;;;;;;;;;22.78;56.28;101391.41;1021269;29;645;-85
2022/07/31 01:05:43;;;;;;;;;;;;;;;22.76;56.06;101385.25;1021359;29;698;-84
2022/07/31 01:06:33;;;;;;;;;;;;;;;22.77;55.87;101388.88;1021199;29;1298;-85
2022/07/31 01:07:24;;;;;;;;;;;;;;;22.76;55.99;101382.53;1021526;29;710;-83
2022/07/31 01:08:15;;;;;;;;;;;;;;;22.76;56.26;101378.97;1022308;28;733;-85
2022/07/31 01:09:05;;;;;;;;;;;;;;;22.76;55.91;101384.41;1022461;28;697;-85
2022/07/31 01:09:55;;;;;;;;;;;;;;;22.76;56.37;101378.97;1021051;29;635;-85
2022/07/31 01:10:46;;;;;;;;;;;;;;;22.76;55.92;101387.97;1021360;29;670;-85
2022/07/31 01:11:36;;;;;;;;;;;;;;;22.77;56.10;101386.16;1021334;29;698;-85
2022/07/31 01:12:27;;;;;;;;;;;;;;;22.76;55.81;101381.69;1021309;29;643;-85
2022/07/31 01:13:17;;;;;;;;;;;;;;;22.76;56.10;101385.25;1022234;28;673;-85
2022/07/31 01:14:08;;;;;;;;;;;;;;;22.76;56.32;101387.13;1021319;29;628;-86
2022/07/31 01:14:58;;;;;;;;;;;;;;;22.77;56.03;101391.59;1022355;28;688;-86
2022/07/31 01:15:48;;;;;;;;;;;;;;;22.75;55.83;101386.28;1021334;29;674;-87
2022/07/31 01:16:39;;;;;;;;;;;;;;;22.75;56.30;101391.72;1023717;29;1636;-87
2022/07/31 01:17:29;;;;;;;;;;;;;;;22.76;55.88;101384.41;1024739;29;696;-86
2022/07/31 01:18:20;;;;;;;;;;;;;;;22.76;55.92;101387.13;1024613;29;638;-87
2022/07/31 01:19:10;;;;;;;;;;;;;;;22.75;56.35;101386.28;1024321;29;619;-87
2022/07/31 01:20:01;;;;;;;;;;;;;;;22.75;56.24;101380.84;1025489;28;627;-87
2022/07/31 01:20:51;;;;;;;;;;;;;;;22.75;56.08;101383.56;1024298;29;639;-86
2022/07/31 01:21:42;;;;;;;;;;;;;;;22.72;56.46;101396.66;1024013;29;639;-86
2022/07/31 01:22:32;;;;;;;;;;;;;;;22.72;56.42;101383.91;1025116;28;626;-86
2022/07/31 01:23:23;;;;;;;;;;;;;;;22.73;56.02;101388.34;1025202;28;800;-84
2022/07/31 01:24:14;;;;;;;;;;;;;;;22.73;56.04;101384.78;1024812;28;677;-83
2022/07/31 01:25:05;;;;;;;;;;;;;;;22.73;56.17;101387.50;1025246;28;696;-84
2022/07/31 01:25:56;;;;;;;;;;;;;;;22.74;56.21;101383.75;1025143;28;638;-85
2022/07/31 01:26:47;;;;;;;;;;;;;;;22.73;55.96;101382.06;1028365;28;1907;-83
2022/07/31 01:27:37;;;;;;;;;;;;;;;22.71;55.95;101384.09;1028414;28;713;-83
2022/07/31 01:28:28;;;;;;;;;;;;;;;22.70;56.42;101379.66;1024741;29;634;-82
2022/07/31 01:29:18;;;;;;;;;;;;;;;22.69;56.57;101377.97;1024166;29;701;-82
2022/07/31 01:30:08;;;;;;;;;;;;;;;22.70;56.35;101377.78;1023962;29;654;-82
2022/07/31 01:30:59;;;;;;;;;;;;;;;22.71;56.40;101378.66;1023871;29;623;-83
2022/07/31 01:31:49;;;;;;;;;;;;;;;22.69;56.43;101375.25;1024049;29;696;-82
2022/07/31 01:32:40;;;;;;;;;;;;;;;22.67;56.37;101377.25;1024037;29;639;-82
2022/07/31 01:33:30;;;;;;;;;;;;;;;22.66;56.41;101373.69;1023961;29;687;-82
2022/07/31 01:34:21;;;;;;;;;;;;;;;22.67;56.13;101377.25;1024170;29;635;-83
2022/07/31 01:35:12;;;;;;;;;;;;;;;22.67;56.51;101371.84;1024190;29;619;-82
2022/07/31 01:36:02;;;;;;;;;;;;;;;22.67;56.18;101374.56;1024586;29;767;-82
2022/07/31 01:36:52;;;;;;;;;;;;;;;22.66;56.56;101375.56;1024460;29;1645;-82
2022/07/31 01:37:43;;;;;;;;;;;;;;;22.67;56.07;101379.97;1024545;28;701;-83
2022/07/31 01:38:34;;;;;;;;;;;;;;;22.66;56.38;101375.56;1024558;29;631;-83
2022/07/31 01:39:24;;;;;;;;;;;;;;;22.68;56.16;101381.69;1024434;29;1474;-82
2022/07/31 01:40:15;;;;;;;;;;;;;;;22.65;56.24;101379.28;1024490;29;670;-82
2022/07/31 01:41:05;;;;;;;;;;;;;;;22.65;55.98;101374.72;1024713;29;663;-81
2022/07/31 01:41:56;;;;;;;;;;;;;;;22.66;56.10;101381.00;1024642;29;674;-82
2022/07/31 01:42:47;;;;;;;;;;;;;;;22.67;56.36;101374.56;1028448;28;717;-82
2022/07/31 01:43:37;;;;;;;;;;;;;;;22.64;56.12;101374.88;1028847;28;720;-82
2022/07/31 01:44:28;;;;;;;;;;;;;;;22.65;56.02;101377.44;1025305;28;638;-82
2022/07/31 01:45:18;;;;;;;;;;;;;;;22.64;56.37;101375.72;1024585;29;1419;-81
2022/07/31 01:46:08;;;;;;;;;;;;;;;22.64;56.42;101383.03;1024467;29;631;-83
2022/07/31 01:46:59;;;;;;;;;;;;;;;22.64;56.30;101388.47;1028309;28;1973;-83
2022/07/31 01:47:49;;;;;;;;;;;;;;;22.65;56.21;101379.28;1028729;28;678;-82
2022/07/31 01:48:40;;;;;;;;;;;;;;;22.64;56.18;101378.44;1025447;28;693;-82
2022/07/31 01:49:30;;;;;;;;;;;;;;;22.65;55.94;101387.44;1024663;29;638;-83
2022/07/31 01:50:21;;;;;;;;;;;;;;;22.64;56.14;101383.03;1024772;29;702;-82
2022/07/31 01:51:11;;;;;;;;;;;;;;;22.65;56.33;101384.72;1024604;29;658;-83
2022/07/31 01:52:02;;;;;;;;;;;;;;;22.65;56.46;101374.72;1024649;29;631;-82
2022/07/31 01:52:52;;;;;;;;;;;;;;;22.64;56.48;101377.59;1024649;29;709;-82
2022/07/31 01:53:42;;;;;;;;;;;;;;;22.60;56.60;101378.94;1024492;29;685;-82
2022/07/31 01:54:33;;;;;;;;;;;;;;;22.62;56.29;101379.63;1024733;29;647;-84
2022/07/31 01:55:23;;;;;;;;;;;;;;;22.60;56.67;101378.94;1024755;29;654;-82
2022/07/31 01:56:14;;;;;;;;;;;;;;;22.58;56.71;101384.53;1024486;29;667;-82
2022/07/31 01:57:04;;;;;;;;;;;;;;;22.58;56.46;101381.81;1025410;29;646;-87
2022/07/31 01:57:54;;;;;;;;;;;;;;;22.60;56.28;101376.22;1024912;29;812;-89
2022/07/31 01:58:45;;;;;;;;;;;;;;;22.59;56.43;101375.34;1024512;29;1285;-86
2022/07/31 01:59:36;;;;;;;;;;;;;;;22.60;56.27;101371.63;1023008;28;754;-87
2022/07/31 02:00:27;;;;;;;;;;;;;;;22.61;56.69;101380.63;1021942;29;680;-88
2022/07/31 02:01:17;;;;;;;;;;;;;;;22.59;56.72;101369.06;1021936;28;766;-88
2022/07/31 02:02:08;;;;;;;;;;;;;;;22.59;56.89;101369.94;1021816;29;635;-88
2022/07/31 02:02:58;;;;;;;;;;;;;;;22.60;56.64;101382.50;1022574;28;616;-88
2022/07/31 02:03:49;;;;;;;;;;;;;;;22.59;56.57;101379.94;1021445;29;666;-88
2022/07/31 02:04:39;;;;;;;;;;;;;;;22.58;56.48;101375.53;1025722;28;595;-88
2022/07/31 02:05:30;;;;;;;;;;;;;;;22.59;56.76;101374.50;1025400;28;892;-88
2022/07/31 02:06:20;;;;;;;;;;;;;;;22.58;56.37;101372.81;1020752;29;1236;-88
2022/07/31 02:07:10;;;;;;;;;;;;;;;22.57;56.41;101373.84;1018110;29;1907;-89
2022/07/31 02:08:01;;;;;;;;;;;;;;;22.59;56.61;101364.50;1017938;29;734;-88
2022/07/31 02:08:51;;;;;;;;;;;;;;;22.61;56.22;101377.91;1017976;29;670;-88
2022/07/31 02:09:42;;;;;;;;;;;;;;;22.61;56.22;101364.34;1017887;29;694;-89
2022/07/31 02:10:32;;;;;;;;;;;;;;;22.61;56.58;101367.06;1018099;29;647;-89
2022/07/31 02:11:23;;;;;;;;;;;;;;;22.59;56.62;101374.50;1018151;29;627;-89
2022/07/31 02:12:13;;;;;;;;;;;;;;;22.59;56.64;101369.06;1017306;29;666;-86
2022/07/31 02:13:03;;;;;;;;;;;;;;;22.59;56.21;101369.06;1017504;29;666;-87
2022/07/31 02:13:54;;;;;;;;;;;;;;;22.57;56.21;101371.13;1017089;29;666;-85
2022/07/31 02:14:44;;;;;;;;;;;;;;;22.57;56.39;101371.13;1017421;29;671;-86
2022/07/31 02:15:35;;;;;;;;;;;;;;;22.57;56.73;101366.56;1017496;29;680;-86
2022/07/31 02:16:25;;;;;;;;;;;;;;;22.56;56.54;101369.44;1017667;29;647;-88
2022/07/31 02:17:16;;;;;;;;;;;;;;;22.58;56.29;101361.94;1017147;29;690;-88
2022/07/31 02:18:06;;;;;;;;;;;;;;;22.57;56.59;101357.56;1017694;29;678;-87
2022/07/31 02:18:57;;;;;;;;;;;;;;;22.57;56.62;101360.28;1019802;29;1607;-87
2022/07/31 02:19:47;;;;;;;;;;;;;;;22.54;56.43;101352.44;1021020;29;696;-88
2022/07/31 02:20:38;;;;;;;;;;;;;;;22.55;56.65;101357.72;1021144;29;647;-89
2022/07/31 02:21:28;;;;;;;;;;;;;;;22.56;56.50;101355.84;1021327;29;674;-88
2022/07/31 02:22:19;;;;;;;;;;;;;;;22.55;56.48;101351.44;1020182;29;690;-87
2022/07/31 02:23:10;;;;;;;;;;;;;;;22.57;56.64;101352.13;1021153;29;710;-88
2022/07/31 02:24:01;;;;;;;;;;;;;;;22.56;56.27;101355.84;1021096;29;620;-90
2022/07/31 02:24:51;;;;;;;;;;;;;;;22.55;56.27;101348.72;1021364;29;706;-90
2022/07/31 02:25:42;;;;;;;;;;;;;;;22.56;56.33;101350.41;1020924;29;627;-89
2022/07/31 02:26:32;;;;;;;;;;;;;;;22.55;56.66;101355.00;1021275;29;637;-89
2022/07/31 02:27:22;;;;;;;;;;;;;;;22.52;56.68;101356.19;1021579;29;907;-89
2022/07/31 02:28:14;;;;;;;;;;;;;;;22.52;56.29;101353.47;1020316;29;624;-89
2022/07/31 02:29:04;;;;;;;;;;;;;;;22.52;56.23;101356.19;1021045;29;655;-89
2022/07/31 02:29:54;;;;;;;;;;;;;;;22.55;56.28;101351.44;1021196;29;627;-91
2022/07/31 02:30:45;;;;;;;;;;;;;;;22.54;56.48;101355.16;1020578;29;659;-91
2022/07/31 02:32:13;;;;;;;;;;;;;;;22.52;56.71;101348.03;1023115;28;1316;-79
2022/07/31 02:33:03;;;;;;;;;;;;;;;22.53;56.58;101354.31;1024500;29;714;-82
2022/07/31 02:33:54;;;;;;;;;;;;;;;22.51;56.73;101351.75;1024404;28;1918;-81
2022/07/31 02:34:44;;;;;;;;;;;;;;;22.53;56.76;101357.03;1024294;29;709;-80
2022/07/31 02:35:35;;;;;;;;;;;;;;;22.54;56.78;101352.44;1024770;28;780;-80
2022/07/31 02:36:26;;;;;;;;;;;;;;;22.52;56.72;101349.88;1028544;28;644;-80
2022/07/31 02:37:16;;;;;;;;;;;;;;;22.52;56.72;101350.75;1028568;28;669;-80
2022/07/31 02:38:07;;;;;;;;;;;;;;;22.53;56.74;101354.31;1024534;28;658;-80
2022/07/31 02:38:57;;;;;;;;;;;;;;;22.52;56.86;101353.47;1020922;29;1558;-79
2022/07/31 02:39:48;;;;;;;;;;;;;;;22.51;56.44;101349.03;1024747;28;666;-79
2022/07/31 02:40:38;;;;;;;;;;;;;;;22.53;56.52;101343.44;1025178;28;1563;-80
2022/07/31 02:41:28;;;;;;;;;;;;;;;22.52;56.53;101350.75;1024858;28;646;-78
2022/07/31 02:42:19;;;;;;;;;;;;;;;22.52;56.60;101348.03;1025066;28;709;-77
2022/07/31 02:43:10;;;;;;;;;;;;;;;22.51;56.42;101346.31;1025903;28;642;-77
2022/07/31 02:44:00;;;;;;;;;;;;;;;22.52;56.58;101342.59;1025373;28;690;-78
2022/07/31 02:44:51;;;;;;;;;;;;;;;22.54;56.65;101350.56;1025407;28;611;-78
2022/07/31 02:45:41;;;;;;;;;;;;;;;22.54;56.52;101342.44;1025789;28;706;-78
2022/07/31 02:46:32;;;;;;;;;;;;;;;22.55;56.57;101348.72;1024762;28;569;-79
2022/07/31 02:47:22;;;;;;;;;;;;;;;22.54;56.81;101344.28;1025272;28;682;-79
2022/07/31 02:48:13;;;;;;;;;;;;;;;22.52;56.85;101349.88;1025565;28;646;-79
2022/07/31 02:49:03;;;;;;;;;;;;;;;22.50;56.45;101344.63;1024530;28;725;-80
2022/07/31 02:49:54;;;;;;;;;;;;;;;22.50;56.70;101339.19;1023280;29;624;-79
2022/07/31 02:50:45;;;;;;;;;;;;;;;22.52;56.72;101337.16;1026232;28;598;-80
2022/07/31 02:51:35;;;;;;;;;;;;;;;22.51;56.97;101340.03;1025074;28;630;-80
2022/07/31 02:52:26;;;;;;;;;;;;;;;22.52;56.92;101341.75;1026196;28;658;-78
2022/07/31 02:53:17;;;;;;;;;;;;;;;22.52;56.89;101334.44;1026372;28;662;-79
2022/07/31 02:54:07;;;;;;;;;;;;;;;22.49;56.75;101334.75;1023913;29;927;-78
2022/07/31 02:54:57;;;;;;;;;;;;;;;22.50;56.73;101328.31;1025845;29;639;-78
2022/07/31 02:55:48;;;;;;;;;;;;;;;22.48;57.00;101335.78;1026130;28;635;-78
2022/07/31 02:56:38;;;;;;;;;;;;;;;22.48;56.76;101334.94;1026048;28;581;-78
2022/07/31 02:57:29;;;;;;;;;;;;;;;22.48;57.04;101335.78;1025582;28;655;-78
2022/07/31 02:58:19;;;;;;;;;;;;;;;22.50;57.19;101332.91;1025502;28;1603;-78
2022/07/31 02:59:10;;;;;;;;;;;;;;;22.50;56.82;101336.47;1026054;28;697;-78
2022/07/31 03:00:00;;;;;;;;;;;;;;;22.48;57.04;101333.06;1024791;29;639;-79
2022/07/31 03:00:50;;;;;;;;;;;;;;;22.48;57.09;101333.06;1024850;29;730;-79
2022/07/31 03:01:41;;;;;;;;;;;;;;;22.50;56.73;101336.47;1024862;29;643;-77
2022/07/31 03:02:32;;;;;;;;;;;;;;;22.49;57.14;101332.06;1025551;29;640;-77
2022/07/31 03:03:22;;;;;;;;;;;;;;;22.49;57.27;101331.19;1024979;29;645;-77
2022/07/31 03:04:13;;;;;;;;;;;;;;;22.47;56.99;101325.94;1024588;29;631;-78
2022/07/31 03:05:03;;;;;;;;;;;;;;;22.47;56.92;101323.22;1025313;29;666;-78
2022/07/31 03:05:54;;;;;;;;;;;;;;;22.46;57.03;101326.94;1024507;29;606;-78
2022/07/31 03:06:44;;;;;;;;;;;;;;;22.49;57.09;101320.34;1025565;29;568;-78
2022/07/31 03:07:35;;;;;;;;;;;;;;;22.48;57.30;101322.19;1024962;29;685;-78
2022/07/31 03:08:25;;;;;;;;;;;;;;;22.48;57.16;101314.06;1024884;29;698;-78
2022/07/31 03:09:16;;;;;;;;;;;;;;;22.50;57.20;101311.16;1024829;29;638;-78
2022/07/31 03:10:06;;;;;;;;;;;;;;;22.49;56.90;101313.03;1024904;29;669;-78
2022/07/31 03:10:57;;;;;;;;;;;;;;;22.48;57.20;101314.06;1024841;29;622;-79
2022/07/31 03:11:47;;;;;;;;;;;;;;;22.49;56.92;101312.19;1025625;29;663;-78
2022/07/31 03:12:38;;;;;;;;;;;;;;;22.47;57.08;101306.06;1024690;29;657;-78
2022/07/31 03:13:29;;;;;;;;;;;;;;;22.47;57.29;101312.34;1025249;28;752;-78
2022/07/31 03:14:19;;;;;;;;;;;;;;;22.47;57.28;101317.78;1025168;29;693;-78
2022/07/31 03:15:10;;;;;;;;;;;;;;;22.48;57.05;101313.19;1024186;29;614;-79
2022/07/31 03:16:00;;;;;;;;;;;;;;;22.47;57.18;101312.34;1025102;29;631;-78
2022/07/31 03:16:50;;;;;;;;;;;;;;;22.45;57.01;101314.38;1024884;29;666;-78
2022/07/31 03:17:41;;;;;;;;;;;;;;;22.47;56.84;101312.34;1025428;28;682;-80
2022/07/31 03:18:32;;;;;;;;;;;;;;;22.46;57.31;101313.38;1021773;29;639;-81
2022/07/31 03:19:22;;;;;;;;;;;;;;;22.47;57.03;101314.22;1021783;28;666;-80
2022/07/31 03:20:13;;;;;;;;;;;;;;;22.49;56.74;101314.91;1021560;28;651;-81
2022/07/31 03:21:03;;;;;;;;;;;;;;;22.49;57.14;101310.31;1022920;28;702;-80
2022/07/31 03:21:55;;;;;;;;;;;;;;;22.48;57.10;101314.06;1021452;29;693;-80
2022/07/31 03:22:45;;;;;;;;;;;;;;;22.47;57.32;101312.34;1021912;28;674;-80
2022/07/31 03:23:36;;;;;;;;;;;;;;;22.47;57.31;101312.34;1022410;28;682;-80
2022/07/31 03:24:26;;;;;;;;;;;;;;;22.45;57.39;101314.38;1021364;29;722;-78
2022/07/31 03:25:16;;;;;;;;;;;;;;;22.46;57.58;101310.66;1022044;28;697;-78
2022/07/31 03:26:07;;;;;;;;;;;;;;;22.46;57.17;101310.66;1026243;28;709;-79
2022/07/31 03:26:58;;;;;;;;;;;;;;;22.46;57.41;101305.22;1021036;29;1894;-79
2022/07/31 03:27:49;;;;;;;;;;;;;;;22.47;57.44;101312.34;1018215;29;605;-77
2022/07/31 03:28:39;;;;;;;;;;;;;;;22.47;57.45;101303.34;1021992;28;631;-78
2022/07/31 03:29:30;;;;;;;;;;;;;;;22.47;57.17;101303.34;1022015;28;622;-78
2022/07/31 03:30:23;;;;;;;;;;;;;;;22.46;57.16;101305.22;1026204;28;733;-78
2022/07/31 03:31:14;;;;;;;;;;;;;;;22.44;57.25;101301.81;1025625;28;650;-78
2022/07/31 03:32:05;;;;;;;;;;;;;;;22.46;57.17;101299.78;1021699;28;1303;-78
2022/07/31 03:32:55;;;;;;;;;;;;;;;22.44;57.51;101301.81;1021896;29;642;-80
2022/07/31 03:33:46;;;;;;;;;;;;;;;22.46;57.56;101302.50;1022217;28;631;-79
2022/07/31 03:34:36;;;;;;;;;;;;;;;22.44;57.51;101301.81;1022177;28;589;-78
2022/07/31 03:35:26;;;;;;;;;;;;;;;22.44;57.44;101295.53;1018769;29;737;-78
2022/07/31 03:36:17;;;;;;;;;;;;;;;22.45;57.36;101302.66;1017025;29;647;-80
2022/07/31 03:37:09;;;;;;;;;;;;;;;22.46;57.42;101297.06;1020941;29;705;-78
2022/07/31 03:37:59;;;;;;;;;;;;;;;22.46;57.16;101304.38;1025810;28;1623;-79
2022/07/31 03:38:49;;;;;;;;;;;;;;;22.47;57.15;101306.06;1024726;29;658;-79
2022/07/31 03:39:40;;;;;;;;;;;;;;;22.46;57.44;101299.78;1024592;28;1681;-79
2022/07/31 03:40:30;;;;;;;;;;;;;;;22.44;57.31;101300.97;1025019;29;657;-78
2022/07/31 03:41:21;;;;;;;;;;;;;;;22.44;57.38;101301.81;1024049;29;1240;-82
2022/07/31 03:42:11;;;;;;;;;;;;;;;22.44;57.21;101300.97;1026799;28;1126;-82
2022/07/31 03:43:02;;;;;;;;;;;;;;;22.45;57.31;101300.78;1026024;28;1092;-81
2022/07/31 03:43:52;;;;;;;;;;;;;;;22.45;57.23;101300.78;1025717;28;1258;-81
2022/07/31 03:44:42;;;;;;;;;;;;;;;22.46;57.83;101298.94;1025658;28;1152;-80
2022/07/31 03:45:33;;;;;;;;;;;;;;;22.46;57.50;101305.22;1023270;28;1172;-80
2022/07/31 03:46:23;;;;;;;;;;;;;;;22.45;57.38;101303.50;1025645;28;1278;-82
2022/07/31 03:47:14;;;;;;;;;;;;;;;22.45;57.68;101300.78;1025325;28;1975;-81
2022/07/31 03:48:04;;;;;;;;;;;;;;;22.45;57.41;101298.09;1021723;28;662;-77
2022/07/31 03:48:55;;;;;;;;;;;;;;;22.44;57.29;101301.81;1021330;29;733;-77
2022/07/31 03:49:45;;;;;;;;;;;;;;;22.43;57.41;101297.38;1023744;28;939;-77
2022/07/31 03:50:36;;;;;;;;;;;;;;;22.42;57.60;101300.28;1021585;28;596;-77
2022/07/31 03:51:27;;;;;;;;;;;;;;;22.45;57.76;101302.66;1021898;28;675;-76
2022/07/31 03:52:17;;;;;;;;;;;;;;;22.43;57.73;101301.97;1021787;29;619;-76
2022/07/31 03:53:07;;;;;;;;;;;;;;;22.43;57.72;101299.25;1022432;28;634;-77
2022/07/31 03:53:58;;;;;;;;;;;;;;;22.41;57.90;101296.72;1021996;29;602;-77
2022/07/31 03:54:48;;;;;;;;;;;;;;;22.42;57.54;101298.41;1022408;28;642;-76
2022/07/31 03:55:39;;;;;;;;;;;;;;;22.43;57.42;101293.81;1020745;29;690;-76
2022/07/31 03:56:29;;;;;;;;;;;;;;;22.41;57.75;101296.72;1023440;28;1404;-76
2022/07/31 03:57:20;;;;;;;;;;;;;;;22.40;57.53;101295.00;1020445;28;948;-76
2022/07/31 03:58:10;;;;;;;;;;;;;;;22.41;57.67;101298.56;1019925;29;726;-73
2022/07/31 03:59:00;;;;;;;;;;;;;;;22.42;58.06;101294.84;1024237;28;1187;-75
2022/07/31 03:59:53;;;;;;;;;;;;;;;22.43;57.61;101293.81;1024261;28;644;-74
2022/07/31 04:00:43;;;;;;;;;;;;;;;22.43;57.82;101293.81;1023377;28;1203;-76
2022/07/31 04:01:34;;;;;;;;;;;;;;;22.44;57.59;101293.66;1025430;28;611;-76
2022/07/31 04:02:24;;;;;;;;;;;;;;;22.41;57.67;101294.00;1025020;28;713;-77
2022/07/31 04:03:15;;;;;;;;;;;;;;;22.40;57.66;101289.56;1025528;28;677;-77
2022/07/31 04:04:05;;;;;;;;;;;;;;;22.41;57.64;101291.28;1016932;28;1476;-76
2022/07/31 04:04:56;;;;;;;;;;;;;;;22.40;57.79;101289.56;1017833;29;1137;-77
2022/07/31 04:05:46;;;;;;;;;;;;;;;22.40;58.02;101291.44;1020443;29;650;-77
2022/07/31 04:06:37;;;;;;;;;;;;;;;22.40;58.01;101286.84;1021989;28;1035;-76
2022/07/31 04:07:27;;;;;;;;;;;;;;;22.38;58.19;101297.06;1021220;28;616;-77
2022/07/31 04:08:17;;;;;;;;;;;;;;;22.39;57.67;101282.44;1020759;29;705;-76
2022/07/31 04:09:08;;;;;;;;;;;;;;;22.40;57.98;101283.28;1025114;28;915;-76
2022/07/31 04:09:58;;;;;;;;;;;;;;;22.40;58.01;101294.16;1024639;28;744;-75
2022/07/31 04:10:49;;;;;;;;;;;;;;;22.38;57.77;101293.50;1022705;28;787;-76
2022/07/31 04:11:39;;;;;;;;;;;;;;;22.37;58.10;101292.66;1024674;28;678;-76
2022/07/31 04:12:29;;;;;;;;;;;;;;;22.32;58.56;101291.44;1021355;28;591;-75
2022/07/31 04:13:20;;;;;;;;;;;;;;;22.33;57.90;101296.69;1017899;28;642;-75
2022/07/31 04:14:10;;;;;;;;;;;;;;;22.35;57.95;101301.97;1016934;29;678;-74
2022/07/31 04:15:01;;;;;;;;;;;;;;;22.36;57.95;101292.81;1023360;29;1054;-74
2022/07/31 04:15:51;;;;;;;;;;;;;;;22.37;58.04;101300.78;1025157;28;709;-75
2022/07/31 04:16:42;;;;;;;;;;;;;;;22.38;57.60;101302.50;1024338;28;1141;-74
2022/07/31 04:17:32;;;;;;;;;;;;;;;22.38;58.04;101298.94;1021801;28;685;-75
2022/07/31 04:18:23;;;;;;;;;;;;;;;22.37;57.74;101298.06;1021194;28;663;-75
2022/07/31 04:19:13;;;;;;;;;;;;;;;22.37;57.77;101297.22;1020769;28;674;-73
2022/07/31 04:20:03;;;;;;;;;;;;;;;22.37;57.81;101298.06;1020984;28;664;-74
2022/07/31 04:20:54;;;;;;;;;;;;;;;22.36;58.18;101298.25;1024045;28;995;-74
2022/07/31 04:21:44;;;;;;;;;;;;;;;22.36;58.01;101299.09;1025117;28;654;-74
2022/07/31 04:22:35;;;;;;;;;;;;;;;22.35;58.02;101302.81;1023323;28;692;-74
2022/07/31 04:23:25;;;;;;;;;;;;;;;22.36;58.02;101288.22;1020626;29;714;-74
2022/07/31 04:24:17;;;;;;;;;;;;;;;22.36;57.78;101296.38;1022336;28;665;-73
2022/07/31 04:25:07;;;;;;;;;;;;;;;22.37;57.42;101297.22;1021465;28;602;-74
2022/07/31 04:25:57;;;;;;;;;;;;;;;22.36;58.20;101293.66;1021662;28;611;-76